sensor_id;sensor_type;location;lat;lon;timestamp;P1;durP1;ratioP1;P2;durP2;ratioP2
70953;SDS011;58618;47.490;8.736;2022-08-19T00:00:15;14.55;;;10.20;;
70953;SDS011;58618;47.490;8.736;2022-08-19T00:03:03;16.42;;;10.15;;
70953;SDS011;58618;47.490;8.736;2022-08-19T00:05:52;13.43;;;9.82;;
70953;SDS011;58618;47.490;8.736;2022-08-19T00:08:39;13.23;;;9.80;;
70953;SDS011;58618;47.490;8.736;2022-08-19T00:11:27;12.90;;;9.65;;
70953;SDS011;58618;47.490;8.736;2022-08-19T00:14:15;16.15;;;10.77;;
70953;SDS011;58618;47.490;8.736;2022-08-19T00:17:03;14.27;;;10.45;;
70953;SDS011;58618;47.490;8.736;2022-08-19T00:19:52;15.73;;;10.60;;
70953;SDS011;58618;47.490;8.736;2022-08-19T00:22:41;15.53;;;10.53;;
70953;SDS011;58618;47.490;8.736;2022-08-19T00:25:28;14.60;;;10.75;;
70953;SDS011;58618;47.490;8.736;2022-08-19T00:28:15;16.70;;;10.98;;
70953;SDS011;58618;47.490;8.736;2022-08-19T00:31:03;16.67;;;10.25;;
70953;SDS011;58618;47.490;8.736;2022-08-19T00:33:51;12.90;;;9.80;;
70953;SDS011;58618;47.490;8.736;2022-08-19T00:36:38;14.50;;;10.47;;
70953;SDS011;58618;47.490;8.736;2022-08-19T00:39:27;13.52;;;10.05;;
70953;SDS011;58618;47.490;8.736;2022-08-19T00:42:14;14.25;;;10.48;;
70953;SDS011;58618;47.490;8.736;2022-08-19T00:45:02;13.68;;;10.40;;
70953;SDS011;58618;47.490;8.736;2022-08-19T00:47:55;12.82;;;9.23;;
70953;SDS011;58618;47.490;8.736;2022-08-19T00:50:43;11.50;;;8.50;;
70953;SDS011;58618;47.490;8.736;2022-08-19T00:53:31;12.07;;;8.90;;
70953;SDS011;58618;47.490;8.736;2022-08-19T00:56:21;11.65;;;9.18;;
70953;SDS011;58618;47.490;8.736;2022-08-19T00:59:09;13.18;;;9.38;;
70953;SDS011;58618;47.490;8.736;2022-08-19T01:01:57;14.60;;;8.90;;
70953;SDS011;58618;47.490;8.736;2022-08-19T01:04:44;12.87;;;9.33;;
70953;SDS011;58618;47.490;8.736;2022-08-19T01:07:32;12.27;;;9.00;;
70953;SDS011;58618;47.490;8.736;2022-08-19T01:10:21;12.18;;;9.30;;
70953;SDS011;58618;47.490;8.736;2022-08-19T01:13:15;14.13;;;9.43;;
70953;SDS011;58618;47.490;8.736;2022-08-19T01:16:07;12.90;;;9.35;;
70953;SDS011;58618;47.490;8.736;2022-08-19T01:18:56;11.63;;;8.93;;
70953;SDS011;58618;47.490;8.736;2022-08-19T01:21:45;15.07;;;8.98;;
70953;SDS011;58618;47.490;8.736;2022-08-19T01:24:40;11.30;;;8.55;;
70953;SDS011;58618;47.490;8.736;2022-08-19T01:27:36;11.85;;;9.05;;
70953;SDS011;58618;47.490;8.736;2022-08-19T01:30:25;12.25;;;9.27;;
70953;SDS011;58618;47.490;8.736;2022-08-19T01:33:15;11.30;;;8.73;;
70953;SDS011;58618;47.490;8.736;2022-08-19T01:36:04;12.38;;;8.93;;
70953;SDS011;58618;47.490;8.736;2022-08-19T01:38:53;12.07;;;8.70;;
70953;SDS011;58618;47.490;8.736;2022-08-19T01:41:43;11.95;;;8.48;;
70953;SDS011;58618;47.490;8.736;2022-08-19T01:44:30;11.18;;;8.30;;
70953;SDS011;58618;47.490;8.736;2022-08-19T01:47:18;10.60;;;8.13;;
70953;SDS011;58618;47.490;8.736;2022-08-19T01:50:06;10.13;;;7.70;;
70953;SDS011;58618;47.490;8.736;2022-08-19T01:52:56;11.73;;;7.75;;
70953;SDS011;58618;47.490;8.736;2022-08-19T01:55:45;10.95;;;8.20;;
70953;SDS011;58618;47.490;8.736;2022-08-19T01:58:36;12.27;;;8.07;;
70953;SDS011;58618;47.490;8.736;2022-08-19T02:01:26;14.30;;;8.13;;
70953;SDS011;58618;47.490;8.736;2022-08-19T02:04:13;11.23;;;8.27;;
70953;SDS011;58618;47.490;8.736;2022-08-19T02:07:01;11.32;;;8.00;;
70953;SDS011;58618;47.490;8.736;2022-08-19T02:09:49;9.35;;;6.40;;
70953;SDS011;58618;47.490;8.736;2022-08-19T02:12:36;10.90;;;6.88;;
70953;SDS011;58618;47.490;8.736;2022-08-19T02:15:25;9.77;;;7.20;;
70953;SDS011;58618;47.490;8.736;2022-08-19T02:18:12;10.23;;;7.15;;
70953;SDS011;58618;47.490;8.736;2022-08-19T02:21:00;11.10;;;7.50;;
70953;SDS011;58618;47.490;8.736;2022-08-19T02:23:47;8.20;;;6.45;;
70953;SDS011;58618;47.490;8.736;2022-08-19T02:26:35;8.98;;;5.93;;
70953;SDS011;58618;47.490;8.736;2022-08-19T02:29:23;7.67;;;5.43;;
70953;SDS011;58618;47.490;8.736;2022-08-19T02:32:11;9.48;;;6.57;;
70953;SDS011;58618;47.490;8.736;2022-08-19T02:34:59;11.00;;;7.22;;
70953;SDS011;58618;47.490;8.736;2022-08-19T02:37:46;11.35;;;7.30;;
70953;SDS011;58618;47.490;8.736;2022-08-19T02:40:48;11.10;;;7.45;;
70953;SDS011;58618;47.490;8.736;2022-08-19T02:43:37;12.90;;;8.03;;
70953;SDS011;58618;47.490;8.736;2022-08-19T02:46:27;14.13;;;8.70;;
70953;SDS011;58618;47.490;8.736;2022-08-19T02:49:18;13.98;;;9.13;;
70953;SDS011;58618;47.490;8.736;2022-08-19T02:52:05;14.93;;;9.10;;
70953;SDS011;58618;47.490;8.736;2022-08-19T02:54:53;16.45;;;8.88;;
70953;SDS011;58618;47.490;8.736;2022-08-19T02:57:43;15.20;;;9.47;;
70953;SDS011;58618;47.490;8.736;2022-08-19T03:00:30;14.90;;;9.43;;
70953;SDS011;58618;47.490;8.736;2022-08-19T03:03:18;16.27;;;10.18;;
70953;SDS011;58618;47.490;8.736;2022-08-19T03:06:08;16.60;;;10.90;;
70953;SDS011;58618;47.490;8.736;2022-08-19T03:08:58;15.90;;;9.45;;
70953;SDS011;58618;47.490;8.736;2022-08-19T03:11:45;18.17;;;10.93;;
70953;SDS011;58618;47.490;8.736;2022-08-19T03:14:33;15.98;;;10.23;;
70953;SDS011;58618;47.490;8.736;2022-08-19T03:17:21;18.75;;;10.55;;
70953;SDS011;58618;47.490;8.736;2022-08-19T03:20:09;22.20;;;11.52;;
70953;SDS011;58618;47.490;8.736;2022-08-19T03:22:58;15.20;;;9.63;;
70953;SDS011;58618;47.490;8.736;2022-08-19T03:25:46;16.50;;;9.47;;
70953;SDS011;58618;47.490;8.736;2022-08-19T03:28:35;17.90;;;10.00;;
70953;SDS011;58618;47.490;8.736;2022-08-19T03:31:23;16.90;;;10.35;;
70953;SDS011;58618;47.490;8.736;2022-08-19T03:34:12;16.55;;;10.32;;
70953;SDS011;58618;47.490;8.736;2022-08-19T03:37:03;17.48;;;9.02;;
70953;SDS011;58618;47.490;8.736;2022-08-19T03:39:54;16.30;;;9.90;;
70953;SDS011;58618;47.490;8.736;2022-08-19T03:42:41;16.65;;;10.25;;
70953;SDS011;58618;47.490;8.736;2022-08-19T03:45:28;16.92;;;10.40;;
70953;SDS011;58618;47.490;8.736;2022-08-19T03:48:16;19.40;;;11.85;;
70953;SDS011;58618;47.490;8.736;2022-08-19T03:51:03;17.83;;;11.02;;
70953;SDS011;58618;47.490;8.736;2022-08-19T03:53:52;18.17;;;11.40;;
70953;SDS011;58618;47.490;8.736;2022-08-19T03:56:42;19.10;;;10.80;;
70953;SDS011;58618;47.490;8.736;2022-08-19T03:59:32;17.92;;;11.05;;
70953;SDS011;58618;47.490;8.736;2022-08-19T04:02:21;21.70;;;11.30;;
70953;SDS011;58618;47.490;8.736;2022-08-19T04:05:08;20.85;;;11.82;;
70953;SDS011;58618;47.490;8.736;2022-08-19T04:07:56;20.87;;;11.83;;
70953;SDS011;58618;47.490;8.736;2022-08-19T04:10:44;20.05;;;12.07;;
70953;SDS011;58618;47.490;8.736;2022-08-19T04:13:34;20.40;;;12.80;;
70953;SDS011;58618;47.490;8.736;2022-08-19T04:16:22;22.73;;;13.40;;
70953;SDS011;58618;47.490;8.736;2022-08-19T04:19:10;22.98;;;13.73;;
70953;SDS011;58618;47.490;8.736;2022-08-19T04:21:59;24.07;;;14.20;;
70953;SDS011;58618;47.490;8.736;2022-08-19T04:24:46;22.73;;;14.38;;
70953;SDS011;58618;47.490;8.736;2022-08-19T04:27:33;24.85;;;13.95;;
70953;SDS011;58618;47.490;8.736;2022-08-19T04:30:22;25.05;;;14.48;;
70953;SDS011;58618;47.490;8.736;2022-08-19T04:33:10;23.08;;;14.40;;
70953;SDS011;58618;47.490;8.736;2022-08-19T04:35:58;22.50;;;14.27;;
70953;SDS011;58618;47.490;8.736;2022-08-19T04:38:46;25.23;;;14.57;;
70953;SDS011;58618;47.490;8.736;2022-08-19T04:41:36;24.38;;;15.50;;
70953;SDS011;58618;47.490;8.736;2022-08-19T04:44:41;24.42;;;15.63;;
70953;SDS011;58618;47.490;8.736;2022-08-19T04:47:31;24.73;;;15.02;;
70953;SDS011;58618;47.490;8.736;2022-08-19T04:50:18;23.70;;;14.93;;
70953;SDS011;58618;47.490;8.736;2022-08-19T04:53:06;26.60;;;15.88;;
70953;SDS011;58618;47.490;8.736;2022-08-19T04:55:54;28.30;;;15.43;;
70953;SDS011;58618;47.490;8.736;2022-08-19T04:58:42;26.35;;;16.05;;
70953;SDS011;58618;47.490;8.736;2022-08-19T05:01:31;25.95;;;15.68;;
70953;SDS011;58618;47.490;8.736;2022-08-19T05:04:22;25.90;;;15.80;;
70953;SDS011;58618;47.490;8.736;2022-08-19T05:07:10;25.80;;;15.88;;
70953;SDS011;58618;47.490;8.736;2022-08-19T05:09:57;24.33;;;15.32;;
70953;SDS011;58618;47.490;8.736;2022-08-19T05:12:44;24.42;;;15.13;;
70953;SDS011;58618;47.490;8.736;2022-08-19T05:15:32;25.88;;;15.45;;
70953;SDS011;58618;47.490;8.736;2022-08-19T05:18:19;24.83;;;16.23;;
70953;SDS011;58618;47.490;8.736;2022-08-19T05:21:25;22.95;;;15.35;;
70953;SDS011;58618;47.490;8.736;2022-08-19T05:24:31;25.00;;;16.23;;
70953;SDS011;58618;47.490;8.736;2022-08-19T05:27:19;28.08;;;15.85;;
70953;SDS011;58618;47.490;8.736;2022-08-19T05:30:07;27.33;;;15.68;;
70953;SDS011;58618;47.490;8.736;2022-08-19T05:32:56;25.57;;;16.10;;
70953;SDS011;58618;47.490;8.736;2022-08-19T05:35:43;26.10;;;15.35;;
70953;SDS011;58618;47.490;8.736;2022-08-19T05:38:33;25.17;;;15.27;;
70953;SDS011;58618;47.490;8.736;2022-08-19T05:41:21;27.60;;;15.70;;
70953;SDS011;58618;47.490;8.736;2022-08-19T05:44:16;28.42;;;17.27;;
70953;SDS011;58618;47.490;8.736;2022-08-19T05:47:06;25.30;;;15.87;;
70953;SDS011;58618;47.490;8.736;2022-08-19T05:49:54;24.58;;;16.20;;
70953;SDS011;58618;47.490;8.736;2022-08-19T05:52:42;26.33;;;16.40;;
70953;SDS011;58618;47.490;8.736;2022-08-19T05:55:31;26.98;;;16.48;;
70953;SDS011;58618;47.490;8.736;2022-08-19T05:58:18;23.67;;;16.00;;
70953;SDS011;58618;47.490;8.736;2022-08-19T06:01:09;27.50;;;16.10;;
70953;SDS011;58618;47.490;8.736;2022-08-19T06:03:58;26.88;;;17.33;;
70953;SDS011;58618;47.490;8.736;2022-08-19T06:06:45;25.40;;;15.93;;
70953;SDS011;58618;47.490;8.736;2022-08-19T06:09:33;24.63;;;16.58;;
70953;SDS011;58618;47.490;8.736;2022-08-19T06:12:22;23.83;;;17.00;;
70953;SDS011;58618;47.490;8.736;2022-08-19T06:15:16;24.57;;;15.70;;
70953;SDS011;58618;47.490;8.736;2022-08-19T06:18:03;24.85;;;15.70;;
70953;SDS011;58618;47.490;8.736;2022-08-19T06:20:50;22.00;;;15.60;;
70953;SDS011;58618;47.490;8.736;2022-08-19T06:23:38;23.30;;;16.15;;
70953;SDS011;58618;47.490;8.736;2022-08-19T06:26:26;22.30;;;15.60;;
70953;SDS011;58618;47.490;8.736;2022-08-19T06:29:15;23.87;;;15.27;;
70953;SDS011;58618;47.490;8.736;2022-08-19T06:32:04;22.15;;;15.40;;
70953;SDS011;58618;47.490;8.736;2022-08-19T06:34:51;24.40;;;15.68;;
70953;SDS011;58618;47.490;8.736;2022-08-19T06:37:39;22.88;;;15.82;;
70953;SDS011;58618;47.490;8.736;2022-08-19T06:40:26;22.77;;;15.13;;
70953;SDS011;58618;47.490;8.736;2022-08-19T06:43:14;22.73;;;14.83;;
70953;SDS011;58618;47.490;8.736;2022-08-19T06:46:03;25.15;;;15.63;;
70953;SDS011;58618;47.490;8.736;2022-08-19T06:48:54;23.67;;;15.07;;
70953;SDS011;58618;47.490;8.736;2022-08-19T06:51:42;20.05;;;15.02;;
70953;SDS011;58618;47.490;8.736;2022-08-19T06:54:30;21.25;;;15.23;;
70953;SDS011;58618;47.490;8.736;2022-08-19T06:57:19;20.87;;;14.50;;
70953;SDS011;58618;47.490;8.736;2022-08-19T07:00:07;21.50;;;14.95;;
70953;SDS011;58618;47.490;8.736;2022-08-19T07:03:00;22.17;;;13.77;;
70953;SDS011;58618;47.490;8.736;2022-08-19T07:05:48;22.70;;;14.88;;
70953;SDS011;58618;47.490;8.736;2022-08-19T07:08:35;22.60;;;14.85;;
70953;SDS011;58618;47.490;8.736;2022-08-19T07:11:25;22.93;;;15.50;;
70953;SDS011;58618;47.490;8.736;2022-08-19T07:14:12;22.98;;;15.18;;
70953;SDS011;58618;47.490;8.736;2022-08-19T07:17:04;21.67;;;14.45;;
70953;SDS011;58618;47.490;8.736;2022-08-19T07:19:55;20.95;;;14.18;;
70953;SDS011;58618;47.490;8.736;2022-08-19T07:22:42;23.75;;;15.00;;
70953;SDS011;58618;47.490;8.736;2022-08-19T07:25:31;24.33;;;15.47;;
70953;SDS011;58618;47.490;8.736;2022-08-19T07:28:18;21.00;;;14.77;;
70953;SDS011;58618;47.490;8.736;2022-08-19T07:31:13;21.85;;;14.77;;
70953;SDS011;58618;47.490;8.736;2022-08-19T07:34:04;20.63;;;14.23;;
70953;SDS011;58618;47.490;8.736;2022-08-19T07:36:57;21.48;;;14.63;;
70953;SDS011;58618;47.490;8.736;2022-08-19T07:39:47;22.80;;;15.00;;
70953;SDS011;58618;47.490;8.736;2022-08-19T07:42:34;20.98;;;14.40;;
70953;SDS011;58618;47.490;8.736;2022-08-19T07:45:22;19.77;;;13.70;;
70953;SDS011;58618;47.490;8.736;2022-08-19T07:48:09;20.90;;;14.80;;
70953;SDS011;58618;47.490;8.736;2022-08-19T07:50:58;21.30;;;14.75;;
70953;SDS011;58618;47.490;8.736;2022-08-19T07:53:49;21.57;;;13.93;;
70953;SDS011;58618;47.490;8.736;2022-08-19T07:56:37;21.08;;;14.02;;
70953;SDS011;58618;47.490;8.736;2022-08-19T07:59:25;21.17;;;14.60;;
70953;SDS011;58618;47.490;8.736;2022-08-19T08:02:14;23.33;;;14.13;;
70953;SDS011;58618;47.490;8.736;2022-08-19T08:05:02;23.30;;;14.55;;
70953;SDS011;58618;47.490;8.736;2022-08-19T08:08:07;24.27;;;14.10;;
70953;SDS011;58618;47.490;8.736;2022-08-19T08:11:24;20.85;;;14.52;;
70953;SDS011;58618;47.490;8.736;2022-08-19T08:14:12;19.60;;;14.35;;
70953;SDS011;58618;47.490;8.736;2022-08-19T08:16:59;21.40;;;14.13;;
70953;SDS011;58618;47.490;8.736;2022-08-19T08:19:47;18.42;;;12.88;;
70953;SDS011;58618;47.490;8.736;2022-08-19T08:22:36;17.80;;;13.07;;
70953;SDS011;58618;47.490;8.736;2022-08-19T08:25:41;18.55;;;12.90;;
70953;SDS011;58618;47.490;8.736;2022-08-19T08:28:29;18.02;;;12.93;;
70953;SDS011;58618;47.490;8.736;2022-08-19T08:31:18;19.45;;;13.18;;
70953;SDS011;58618;47.490;8.736;2022-08-19T08:34:05;18.65;;;13.02;;
70953;SDS011;58618;47.490;8.736;2022-08-19T08:36:53;21.13;;;13.87;;
70953;SDS011;58618;47.490;8.736;2022-08-19T08:39:41;21.00;;;14.13;;
70953;SDS011;58618;47.490;8.736;2022-08-19T08:42:30;18.23;;;13.50;;
70953;SDS011;58618;47.490;8.736;2022-08-19T08:45:22;21.63;;;13.50;;
70953;SDS011;58618;47.490;8.736;2022-08-19T08:48:13;17.13;;;12.20;;
70953;SDS011;58618;47.490;8.736;2022-08-19T08:51:05;16.70;;;11.33;;
70953;SDS011;58618;47.490;8.736;2022-08-19T08:53:57;19.17;;;12.23;;
70953;SDS011;58618;47.490;8.736;2022-08-19T08:56:44;17.77;;;11.85;;
70953;SDS011;58618;47.490;8.736;2022-08-19T08:59:36;18.40;;;12.70;;
70953;SDS011;58618;47.490;8.736;2022-08-19T09:02:28;17.63;;;11.93;;
70953;SDS011;58618;47.490;8.736;2022-08-19T09:05:15;18.10;;;12.23;;
70953;SDS011;58618;47.490;8.736;2022-08-19T09:08:05;17.67;;;12.65;;
70953;SDS011;58618;47.490;8.736;2022-08-19T09:10:57;20.67;;;13.57;;
70953;SDS011;58618;47.490;8.736;2022-08-19T09:13:47;17.10;;;12.15;;
70953;SDS011;58618;47.490;8.736;2022-08-19T09:16:43;18.08;;;13.27;;
70953;SDS011;58618;47.490;8.736;2022-08-19T09:19:32;18.63;;;13.43;;
70953;SDS011;58618;47.490;8.736;2022-08-19T09:22:19;22.42;;;13.68;;
70953;SDS011;58618;47.490;8.736;2022-08-19T09:25:08;20.08;;;14.18;;
70953;SDS011;58618;47.490;8.736;2022-08-19T09:27:57;20.20;;;14.40;;
70953;SDS011;58618;47.490;8.736;2022-08-19T09:30:48;19.67;;;14.45;;
70953;SDS011;58618;47.490;8.736;2022-08-19T09:33:35;22.70;;;14.77;;
70953;SDS011;58618;47.490;8.736;2022-08-19T09:36:25;22.83;;;15.18;;
70953;SDS011;58618;47.490;8.736;2022-08-19T09:39:14;26.63;;;15.15;;
70953;SDS011;58618;47.490;8.736;2022-08-19T09:42:02;20.48;;;15.07;;
70953;SDS011;58618;47.490;8.736;2022-08-19T09:44:50;24.15;;;15.70;;
70953;SDS011;58618;47.490;8.736;2022-08-19T09:47:37;23.57;;;15.60;;
70953;SDS011;58618;47.490;8.736;2022-08-19T09:50:25;22.67;;;15.43;;
70953;SDS011;58618;47.490;8.736;2022-08-19T09:53:14;24.15;;;16.48;;
70953;SDS011;58618;47.490;8.736;2022-08-19T09:56:01;25.50;;;17.30;;
70953;SDS011;58618;47.490;8.736;2022-08-19T09:58:49;25.45;;;16.83;;
70953;SDS011;58618;47.490;8.736;2022-08-19T10:01:36;25.20;;;17.13;;
70953;SDS011;58618;47.490;8.736;2022-08-19T10:04:24;24.83;;;17.23;;
70953;SDS011;58618;47.490;8.736;2022-08-19T10:07:31;27.67;;;18.25;;
70953;SDS011;58618;47.490;8.736;2022-08-19T10:10:20;25.88;;;17.60;;
70953;SDS011;58618;47.490;8.736;2022-08-19T10:13:08;26.23;;;17.75;;
70953;SDS011;58618;47.490;8.736;2022-08-19T10:15:56;27.83;;;19.33;;
70953;SDS011;58618;47.490;8.736;2022-08-19T10:18:49;28.70;;;19.48;;
70953;SDS011;58618;47.490;8.736;2022-08-19T10:21:36;29.98;;;18.90;;
70953;SDS011;58618;47.490;8.736;2022-08-19T10:24:24;29.60;;;19.20;;
70953;SDS011;58618;47.490;8.736;2022-08-19T10:27:14;29.50;;;19.00;;
70953;SDS011;58618;47.490;8.736;2022-08-19T10:30:02;31.37;;;19.37;;
70953;SDS011;58618;47.490;8.736;2022-08-19T10:32:50;27.30;;;18.38;;
70953;SDS011;58618;47.490;8.736;2022-08-19T10:35:37;29.27;;;19.38;;
70953;SDS011;58618;47.490;8.736;2022-08-19T10:38:25;29.55;;;19.60;;
70953;SDS011;58618;47.490;8.736;2022-08-19T10:41:13;32.05;;;20.75;;
70953;SDS011;58618;47.490;8.736;2022-08-19T10:44:04;34.40;;;21.30;;
70953;SDS011;58618;47.490;8.736;2022-08-19T10:46:53;32.05;;;20.58;;
70953;SDS011;58618;47.490;8.736;2022-08-19T10:49:40;30.85;;;19.58;;
70953;SDS011;58618;47.490;8.736;2022-08-19T10:52:42;29.73;;;20.15;;
70953;SDS011;58618;47.490;8.736;2022-08-19T10:55:31;32.95;;;20.70;;
70953;SDS011;58618;47.490;8.736;2022-08-19T10:58:36;34.33;;;21.00;;
70953;SDS011;58618;47.490;8.736;2022-08-19T11:01:24;31.63;;;20.23;;
70953;SDS011;58618;47.490;8.736;2022-08-19T11:04:12;33.45;;;21.17;;
70953;SDS011;58618;47.490;8.736;2022-08-19T11:07:03;32.33;;;21.17;;
70953;SDS011;58618;47.490;8.736;2022-08-19T11:09:51;34.13;;;20.58;;
70953;SDS011;58618;47.490;8.736;2022-08-19T11:12:39;33.23;;;21.10;;
70953;SDS011;58618;47.490;8.736;2022-08-19T11:15:27;31.90;;;20.20;;
70953;SDS011;58618;47.490;8.736;2022-08-19T11:18:16;32.75;;;20.52;;
70953;SDS011;58618;47.490;8.736;2022-08-19T11:21:07;30.85;;;20.60;;
70953;SDS011;58618;47.490;8.736;2022-08-19T11:23:56;31.90;;;20.55;;
70953;SDS011;58618;47.490;8.736;2022-08-19T11:26:46;27.90;;;19.47;;
70953;SDS011;58618;47.490;8.736;2022-08-19T11:29:35;30.23;;;19.40;;
70953;SDS011;58618;47.490;8.736;2022-08-19T11:32:24;34.30;;;21.65;;
70953;SDS011;58618;47.490;8.736;2022-08-19T11:35:13;32.90;;;21.33;;
70953;SDS011;58618;47.490;8.736;2022-08-19T11:38:01;30.58;;;20.58;;
70953;SDS011;58618;47.490;8.736;2022-08-19T11:40:54;34.33;;;20.17;;
70953;SDS011;58618;47.490;8.736;2022-08-19T11:43:42;33.42;;;21.67;;
70953;SDS011;58618;47.490;8.736;2022-08-19T11:46:30;31.48;;;21.08;;
70953;SDS011;58618;47.490;8.736;2022-08-19T11:49:18;35.40;;;21.17;;
70953;SDS011;58618;47.490;8.736;2022-08-19T11:52:08;33.30;;;21.77;;
70953;SDS011;58618;47.490;8.736;2022-08-19T11:55:05;32.90;;;21.07;;
70953;SDS011;58618;47.490;8.736;2022-08-19T11:58:42;33.67;;;20.75;;
70953;SDS011;58618;47.490;8.736;2022-08-19T12:01:30;35.45;;;22.60;;
70953;SDS011;58618;47.490;8.736;2022-08-19T12:04:17;35.53;;;24.00;;
70953;SDS011;58618;47.490;8.736;2022-08-19T12:07:04;33.13;;;21.92;;
70953;SDS011;58618;47.490;8.736;2022-08-19T12:09:53;34.83;;;22.13;;
70953;SDS011;58618;47.490;8.736;2022-08-19T12:12:40;35.78;;;22.75;;
70953;SDS011;58618;47.490;8.736;2022-08-19T12:15:28;38.05;;;22.85;;
70953;SDS011;58618;47.490;8.736;2022-08-19T12:18:15;35.88;;;23.52;;
70953;SDS011;58618;47.490;8.736;2022-08-19T12:21:03;37.58;;;23.40;;
70953;SDS011;58618;47.490;8.736;2022-08-19T12:23:50;40.93;;;24.83;;
70953;SDS011;58618;47.490;8.736;2022-08-19T12:26:40;38.78;;;25.25;;
70953;SDS011;58618;47.490;8.736;2022-08-19T12:29:28;36.40;;;25.25;;
70953;SDS011;58618;47.490;8.736;2022-08-19T12:32:16;37.65;;;24.00;;
70953;SDS011;58618;47.490;8.736;2022-08-19T12:35:04;41.03;;;25.55;;
70953;SDS011;58618;47.490;8.736;2022-08-19T12:37:52;39.40;;;24.77;;
70953;SDS011;58618;47.490;8.736;2022-08-19T12:40:40;40.15;;;25.33;;
70953;SDS011;58618;47.490;8.736;2022-08-19T12:43:28;39.92;;;25.35;;
70953;SDS011;58618;47.490;8.736;2022-08-19T12:46:16;40.38;;;25.80;;
70953;SDS011;58618;47.490;8.736;2022-08-19T12:49:04;37.42;;;24.65;;
70953;SDS011;58618;47.490;8.736;2022-08-19T12:51:51;40.87;;;25.63;;
70953;SDS011;58618;47.490;8.736;2022-08-19T12:54:39;40.75;;;25.45;;
70953;SDS011;58618;47.490;8.736;2022-08-19T12:57:26;42.72;;;26.95;;
70953;SDS011;58618;47.490;8.736;2022-08-19T13:00:19;38.42;;;24.70;;
70953;SDS011;58618;47.490;8.736;2022-08-19T13:03:08;40.20;;;25.77;;
70953;SDS011;58618;47.490;8.736;2022-08-19T13:05:55;39.83;;;24.87;;
70953;SDS011;58618;47.490;8.736;2022-08-19T13:08:42;39.60;;;26.45;;
70953;SDS011;58618;47.490;8.736;2022-08-19T13:11:30;40.53;;;25.60;;
70953;SDS011;58618;47.490;8.736;2022-08-19T13:14:18;38.28;;;25.13;;
70953;SDS011;58618;47.490;8.736;2022-08-19T13:17:07;39.67;;;24.75;;
70953;SDS011;58618;47.490;8.736;2022-08-19T13:19:54;40.63;;;25.17;;
70953;SDS011;58618;47.490;8.736;2022-08-19T13:22:42;36.78;;;24.55;;
70953;SDS011;58618;47.490;8.736;2022-08-19T13:25:30;41.38;;;25.48;;
70953;SDS011;58618;47.490;8.736;2022-08-19T13:28:17;41.05;;;26.08;;
70953;SDS011;58618;47.490;8.736;2022-08-19T13:31:05;41.65;;;25.50;;
70953;SDS011;58618;47.490;8.736;2022-08-19T13:34:11;35.70;;;23.53;;
70953;SDS011;58618;47.490;8.736;2022-08-19T13:37:00;38.20;;;25.13;;
70953;SDS011;58618;47.490;8.736;2022-08-19T13:39:49;40.40;;;25.50;;
70953;SDS011;58618;47.490;8.736;2022-08-19T13:42:40;37.83;;;25.17;;
70953;SDS011;58618;47.490;8.736;2022-08-19T13:45:29;34.05;;;22.70;;
70953;SDS011;58618;47.490;8.736;2022-08-19T13:48:18;37.87;;;24.53;;
70953;SDS011;58618;47.490;8.736;2022-08-19T13:51:07;37.78;;;24.35;;
70953;SDS011;58618;47.490;8.736;2022-08-19T13:53:56;38.00;;;23.92;;
70953;SDS011;58618;47.490;8.736;2022-08-19T13:56:44;36.90;;;24.50;;
70953;SDS011;58618;47.490;8.736;2022-08-19T13:59:32;36.90;;;24.40;;
70953;SDS011;58618;47.490;8.736;2022-08-19T14:02:19;36.77;;;24.37;;
70953;SDS011;58618;47.490;8.736;2022-08-19T14:05:09;37.83;;;24.40;;
70953;SDS011;58618;47.490;8.736;2022-08-19T14:07:59;34.03;;;23.90;;
70953;SDS011;58618;47.490;8.736;2022-08-19T14:10:46;34.65;;;23.17;;
70953;SDS011;58618;47.490;8.736;2022-08-19T14:13:34;34.95;;;23.25;;
70953;SDS011;58618;47.490;8.736;2022-08-19T14:16:21;35.97;;;23.80;;
70953;SDS011;58618;47.490;8.736;2022-08-19T14:19:09;35.95;;;24.00;;
70953;SDS011;58618;47.490;8.736;2022-08-19T14:21:56;35.58;;;23.67;;
70953;SDS011;58618;47.490;8.736;2022-08-19T14:24:45;38.00;;;24.20;;
70953;SDS011;58618;47.490;8.736;2022-08-19T14:27:33;34.15;;;23.25;;
70953;SDS011;58618;47.490;8.736;2022-08-19T14:30:24;34.67;;;22.17;;
70953;SDS011;58618;47.490;8.736;2022-08-19T14:33:14;37.08;;;23.67;;
70953;SDS011;58618;47.490;8.736;2022-08-19T14:36:01;36.47;;;24.15;;
70953;SDS011;58618;47.490;8.736;2022-08-19T14:38:48;35.38;;;23.15;;
70953;SDS011;58618;47.490;8.736;2022-08-19T14:41:39;34.90;;;22.48;;
70953;SDS011;58618;47.490;8.736;2022-08-19T14:44:26;34.67;;;23.53;;
70953;SDS011;58618;47.490;8.736;2022-08-19T14:47:14;36.10;;;23.48;;
70953;SDS011;58618;47.490;8.736;2022-08-19T14:50:01;37.50;;;23.75;;
70953;SDS011;58618;47.490;8.736;2022-08-19T14:52:48;34.95;;;23.98;;
70953;SDS011;58618;47.490;8.736;2022-08-19T14:55:39;34.60;;;23.00;;
70953;SDS011;58618;47.490;8.736;2022-08-19T14:58:29;36.33;;;23.33;;
70953;SDS011;58618;47.490;8.736;2022-08-19T15:01:17;38.58;;;24.45;;
70953;SDS011;58618;47.490;8.736;2022-08-19T15:04:06;34.10;;;22.52;;
70953;SDS011;58618;47.490;8.736;2022-08-19T15:06:54;39.88;;;23.35;;
70953;SDS011;58618;47.490;8.736;2022-08-19T15:09:41;34.88;;;23.73;;
70953;SDS011;58618;47.490;8.736;2022-08-19T15:12:28;38.00;;;24.40;;
70953;SDS011;58618;47.490;8.736;2022-08-19T15:15:17;38.72;;;24.33;;
70953;SDS011;58618;47.490;8.736;2022-08-19T15:18:05;37.20;;;24.10;;
70953;SDS011;58618;47.490;8.736;2022-08-19T15:20:53;34.67;;;23.05;;
70953;SDS011;58618;47.490;8.736;2022-08-19T15:23:40;34.47;;;22.10;;
70953;SDS011;58618;47.490;8.736;2022-08-19T15:26:28;34.83;;;23.00;;
70953;SDS011;58618;47.490;8.736;2022-08-19T15:29:18;33.65;;;22.05;;
70953;SDS011;58618;47.490;8.736;2022-08-19T15:32:07;33.00;;;22.52;;
70953;SDS011;58618;47.490;8.736;2022-08-19T15:34:54;32.28;;;21.98;;
70953;SDS011;58618;47.490;8.736;2022-08-19T15:37:41;33.47;;;23.15;;
70953;SDS011;58618;47.490;8.736;2022-08-19T15:40:29;33.90;;;23.70;;
70953;SDS011;58618;47.490;8.736;2022-08-19T15:43:17;35.03;;;23.85;;
70953;SDS011;58618;47.490;8.736;2022-08-19T15:46:06;36.90;;;22.95;;
70953;SDS011;58618;47.490;8.736;2022-08-19T15:48:55;35.28;;;23.73;;
70953;SDS011;58618;47.490;8.736;2022-08-19T15:51:43;39.53;;;24.20;;
70953;SDS011;58618;47.490;8.736;2022-08-19T15:54:33;33.67;;;22.30;;
70953;SDS011;58618;47.490;8.736;2022-08-19T15:57:20;30.20;;;21.63;;
70953;SDS011;58618;47.490;8.736;2022-08-19T16:00:25;34.05;;;22.88;;
70953;SDS011;58618;47.490;8.736;2022-08-19T16:03:30;34.05;;;22.92;;
70953;SDS011;58618;47.490;8.736;2022-08-19T16:06:37;35.10;;;22.27;;
70953;SDS011;58618;47.490;8.736;2022-08-19T16:09:26;34.47;;;23.50;;
70953;SDS011;58618;47.490;8.736;2022-08-19T16:12:15;34.85;;;22.83;;
70953;SDS011;58618;47.490;8.736;2022-08-19T16:15:04;33.28;;;22.88;;
70953;SDS011;58618;47.490;8.736;2022-08-19T16:17:51;34.75;;;22.80;;
70953;SDS011;58618;47.490;8.736;2022-08-19T16:20:41;34.92;;;22.48;;
70953;SDS011;58618;47.490;8.736;2022-08-19T16:23:30;36.83;;;22.90;;
70953;SDS011;58618;47.490;8.736;2022-08-19T16:26:18;36.97;;;22.23;;
70953;SDS011;58618;47.490;8.736;2022-08-19T16:29:06;33.58;;;23.15;;
70953;SDS011;58618;47.490;8.736;2022-08-19T16:31:54;35.05;;;23.05;;